Marathon, FL

10:05 AM EDT on September 02, 2015 (GMT -0400)
Key West Botanical Garden | | Change Station
CLOSE
Current Station
Personal Weather Station
Location: Key West, FL
Elevation: 10 ft
Nearby Weather Stations

Elev 10 ft 24.57 °N, 81.75 °W | Updated 5 seconds ago

Partly Cloudy
Partly Cloudy
89.2 °F
Feels Like 102 °F
N
1.1
Wind Variable Wind from SE
Gusts 2.5 mph

Today
High -- | Low -- °F
--% Chance of Precip.
Yesterday
High -- | Low -- °F
Precip. -- in
7:08 AM 7:44 PM
Waning Gibbous, 80% visible
Pressure 30.08 in
Visibility 10.0 miles
Clouds Clear
Heat Index 102 °F
Dew Point 77 °F
Humidity 67%
Rainfall 0.00 in
Snow Depth Not available.
UV 4.0 out of 12
Pollen 5.20 out of 12
Air Quality Not available.
Flu Activity Not available.
METAR KEYW 021353Z 14006KT 10SM CLR 31/25 A3008 RMK AO2 SLP184 T03060250 $
Pressure 30.08 in
Visibility 10.0 miles
Clouds Clear
Heat Index 102 °F
Dew Point 77 °F
Humidity 67%
Rainfall 0.00 in
Snow Depth Not available.
UV 4.0 out of 12
Pollen 5.20 out of 12
Air Quality Not available.
Flu Activity Not available.
METAR KEYW 021353Z 14006KT 10SM CLR 31/25 A3008 RMK AO2 SLP184 T03060250 $
Nowcast | as of 9:59 am EDT on September 2, 2015

Through 1130 am...isolated showers will continue to move northwest at around 10 knots through the coastal waters of the Florida Keys. Mariners could experience brief periods of reduced visibility within small pockets of light to moderate rainfall...as well as few lightning strikes near the strongest storms. Some of these showers may affect the island communities of the lower and Upper Keys with no significant accumulations expected at this time.

×

10-Day Weather Forecast

×

Almanac

Astronomy

Sep. 02, 2015 Rise Set
Actual Time
Civil Twilight
Nautical Twilight
Astronomical Twilight
Moon
Length of Visible Light
Length of Day
Tomorrow will be .
, % of the Moon is Illuminated

Today's Extremes

State Highs State Lows

Community

WunderPhotos

Upload Photos

1,851,759 photos uploaded!

WunderBlogs® & News

Nearby

Air Quality

  Air Quality AQ Index Pollutant
Not available.

Snow Depth

Station Depth Elevation

Earthquake Activity

City Distance Mag. Time & Date
Minimum magnitude displayed is 2.5.

Coastal Water Temperatures

Place Temperature

Stations

Nearby Weather Stations

Station Location Temp. Windchill Dew Point Humidity Wind Precip. Elev Updated Type